DW8626 Madrid ES current weather conditions

sailwx.info

Wind from 027 at 0 knots gusting 1

Air temperature 18.3° C
Dewpoint 7.1° C

Last reported at 2014-Oct-31 19:43 UTC.
Time now 2014-Nov-01 09:10 UTC

Location: N 40°29' W 003°43'.
View on Google Maps.

See reports from other nearby stations

  
Tides and Currents Weather Stations Pressure Air Temp Water Temp Dewpoint Dewpoint Depression Visibility Wind Speed Wind Dir Waves Ship Positions
date/time (UTC)wind fromknots sea level pressurealtimeterstation pressurevisibilityair tempwater tempwave heightnotes
2014-Oct-31 19:43 027 0 gusting 1 18.3
2014-Oct-31 19:30 345 18.3
2014-Oct-31 19:14 302 18.3
2014-Oct-31 18:58 340 18.9
2014-Oct-31 18:43 025 1 gusting 1 18.9
2014-Oct-31 18:28 326 19.4
2014-Oct-31 18:13 305 20.0
2014-Oct-31 17:58 264 20.6
2014-Oct-31 17:43 208 20.6
2014-Oct-31 13:30 129 4 gusting 6 21.7
2014-Oct-31 10:31 004 0 gusting 0 20.0
2014-Oct-31 09:59 153 18.9
2014-Oct-31 09:29 103 0 gusting 0 18.9
2014-Oct-31 09:17 124 1 gusting 1 17.8
2014-Oct-31 08:44 044 2 gusting 5 16.1
2014-Oct-31 08:14 056 5 gusting 6 15.0
2014-Oct-31 08:00 068 2 gusting 7 15.0
2014-Oct-31 07:44 081 3 gusting 5 15.0
2014-Oct-31 06:13 046 1 gusting 5 14.4
2014-Oct-31 05:58 007 0 gusting 5 15.0
2014-Oct-31 05:43 032 2 gusting 6 15.0
2014-Oct-31 05:28 081 0 gusting 4 15.0
2014-Oct-31 05:13 061 3 gusting 7 15.0
2014-Oct-31 04:58 027 1 gusting 9 15.0
2014-Oct-31 04:43 044 4 gusting 7 15.0
2014-Oct-31 04:30 025 6 gusting 7 15.0
2014-Oct-31 04:14 045 6 gusting 7 15.0
2014-Oct-31 03:58 072 15.0
2014-Oct-31 03:43 035 0 gusting 3 15.0
2014-Oct-31 03:28 049 0 gusting 1 15.0
2014-Oct-31 03:13 053 15.0
2014-Oct-31 02:58 056 15.0
2014-Oct-31 02:43 030 0 gusting 1 15.6
2014-Oct-31 02:28 350 16.1
2014-Oct-31 02:13 098 16.1
2014-Oct-31 02:01 060 16.1
2014-Oct-31 01:45 077 0 gusting 2 16.1
2014-Oct-31 01:28 049 0 gusting 0 16.1
2014-Oct-31 01:13 051 16.1
2014-Oct-31 00:58 022 16.1
2014-Oct-31 00:43 022 1 gusting 4 16.7
2014-Oct-31 00:28 051 16.7
2014-Oct-31 00:13 030 0 gusting 2 16.7
2014-Oct-30 23:58 012 1 gusting 2 16.7
2014-Oct-30 23:48 012 1 gusting 2 16.7
2014-Oct-30 23:43 077 1 gusting 5 16.7
2014-Oct-30 23:30 070 1 gusting 4 17.2
2014-Oct-30 23:14 125 17.8
2014-Oct-30 22:58 074 2 gusting 6 18.3
2014-Oct-30 22:43 058 2 gusting 8 18.3
2014-Oct-30 22:28 065 2 gusting 6 18.3
2014-Oct-30 22:13 037 0 gusting 6 18.3
2014-Oct-30 21:58 110 0 gusting 4 18.9
2014-Oct-30 21:43 086 0 gusting 1 18.9
2014-Oct-30 21:28 359 18.3
2014-Oct-30 21:13 354 0 gusting 0 18.9
2014-Oct-30 21:00 360 18.9
2014-Oct-30 20:44 354 19.4
2014-Oct-30 20:28 035 1 gusting 2 19.4
2014-Oct-30 20:13 012 3 gusting 4 19.4
2014-Oct-30 19:58 006 2 gusting 2 19.4
2014-Oct-30 19:43 005 20.0
2014-Oct-30 19:28 044 20.0
2014-Oct-30 19:13 044 20.6
2014-Oct-30 18:58 044 20.6
2014-Oct-30 18:43 044 21.7
2014-Oct-30 18:15 049 0 gusting 2 22.8
2014-Oct-30 17:58 044 22.8
2014-Oct-30 17:43 044 0 gusting 0 22.8
2014-Oct-30 16:43 036 2 gusting 3 23.9
2014-Oct-30 16:15 351 0 gusting 3 24.4
2014-Oct-30 15:30 217 1 gusting 2 26.1
2014-Oct-30 15:00 102 0 gusting 0 25.0
2014-Oct-30 14:45 059 24.4
2014-Oct-30 14:28 019 0 gusting 3 24.4
2014-Oct-30 13:00 335 0 gusting 2 23.3
2014-Oct-30 11:14 155 22.2
2014-Oct-30 11:05 068 21.1
2014-Oct-30 10:47 124 21.1
2014-Oct-30 10:14 135 0 gusting 1 20.0
2014-Oct-30 10:00 128 0 gusting 3 19.4
2014-Oct-30 09:45 257 18.9
2014-Oct-30 09:14 042 17.8